sensor_id;sensor_type;location;lat;lon;timestamp;P1;durP1;ratioP1;P2;durP2;ratioP2
1995;SDS011;38556;47.068;15.408;2022-11-12T00:00:18;42.20;;;38.70;;
1995;SDS011;38556;47.068;15.408;2022-11-12T00:02:46;43.28;;;39.28;;
1995;SDS011;38556;47.068;15.408;2022-11-12T00:05:13;42.50;;;38.88;;
1995;SDS011;38556;47.068;15.408;2022-11-12T00:07:40;43.13;;;39.38;;
1995;SDS011;38556;47.068;15.408;2022-11-12T00:10:08;43.92;;;40.13;;
1995;SDS011;38556;47.068;15.408;2022-11-12T00:12:36;42.10;;;38.55;;
1995;SDS011;38556;47.068;15.408;2022-11-12T00:15:05;43.17;;;39.53;;
1995;SDS011;38556;47.068;15.408;2022-11-12T00:17:33;44.95;;;40.88;;
1995;SDS011;38556;47.068;15.408;2022-11-12T00:20:00;42.70;;;39.05;;
1995;SDS011;38556;47.068;15.408;2022-11-12T00:22:28;42.20;;;38.30;;
1995;SDS011;38556;47.068;15.408;2022-11-12T00:24:55;45.50;;;41.40;;
1995;SDS011;38556;47.068;15.408;2022-11-12T00:27:23;44.03;;;40.13;;
1995;SDS011;38556;47.068;15.408;2022-11-12T00:29:50;44.15;;;40.38;;
1995;SDS011;38556;47.068;15.408;2022-11-12T00:32:18;43.75;;;39.80;;
1995;SDS011;38556;47.068;15.408;2022-11-12T00:34:46;42.30;;;38.70;;
1995;SDS011;38556;47.068;15.408;2022-11-12T00:37:13;41.60;;;37.95;;
1995;SDS011;38556;47.068;15.408;2022-11-12T00:39:41;39.65;;;36.55;;
1995;SDS011;38556;47.068;15.408;2022-11-12T00:42:08;38.55;;;35.35;;
1995;SDS011;38556;47.068;15.408;2022-11-12T00:44:36;42.17;;;38.53;;
1995;SDS011;38556;47.068;15.408;2022-11-12T00:47:03;40.95;;;37.35;;
1995;SDS011;38556;47.068;15.408;2022-11-12T00:49:31;40.05;;;36.53;;
1995;SDS011;38556;47.068;15.408;2022-11-12T00:51:59;40.67;;;36.97;;
1995;SDS011;38556;47.068;15.408;2022-11-12T00:54:26;40.92;;;37.60;;
1995;SDS011;38556;47.068;15.408;2022-11-12T00:56:53;40.72;;;37.40;;
1995;SDS011;38556;47.068;15.408;2022-11-12T00:59:21;42.53;;;38.83;;
1995;SDS011;38556;47.068;15.408;2022-11-12T01:01:48;40.90;;;37.22;;
1995;SDS011;38556;47.068;15.408;2022-11-12T01:04:15;38.60;;;35.50;;
1995;SDS011;38556;47.068;15.408;2022-11-12T01:06:44;38.20;;;35.00;;
1995;SDS011;38556;47.068;15.408;2022-11-12T01:09:11;37.90;;;34.95;;
1995;SDS011;38556;47.068;15.408;2022-11-12T01:11:39;38.97;;;35.78;;
1995;SDS011;38556;47.068;15.408;2022-11-12T01:14:07;36.63;;;33.83;;
1995;SDS011;38556;47.068;15.408;2022-11-12T01:16:36;40.38;;;36.83;;
1995;SDS011;38556;47.068;15.408;2022-11-12T01:19:07;37.65;;;34.65;;
1995;SDS011;38556;47.068;15.408;2022-11-12T01:21:36;36.72;;;33.60;;
1995;SDS011;38556;47.068;15.408;2022-11-12T01:24:07;40.05;;;36.83;;
1995;SDS011;38556;47.068;15.408;2022-11-12T01:26:35;39.88;;;36.38;;
1995;SDS011;38556;47.068;15.408;2022-11-12T01:29:03;37.03;;;33.88;;
1995;SDS011;38556;47.068;15.408;2022-11-12T01:31:31;38.40;;;35.20;;
1995;SDS011;38556;47.068;15.408;2022-11-12T01:34:00;36.22;;;33.28;;
1995;SDS011;38556;47.068;15.408;2022-11-12T01:36:30;34.13;;;31.40;;
1995;SDS011;38556;47.068;15.408;2022-11-12T01:38:59;32.40;;;30.10;;
1995;SDS011;38556;47.068;15.408;2022-11-12T01:41:28;35.90;;;32.97;;
1995;SDS011;38556;47.068;15.408;2022-11-12T01:44:11;35.58;;;32.80;;
1995;SDS011;38556;47.068;15.408;2022-11-12T01:46:43;36.97;;;34.08;;
1995;SDS011;38556;47.068;15.408;2022-11-12T01:49:20;34.88;;;32.17;;
1995;SDS011;38556;47.068;15.408;2022-11-12T01:51:51;42.28;;;38.03;;
1995;SDS011;38556;47.068;15.408;2022-11-12T01:54:22;38.25;;;35.03;;
1995;SDS011;38556;47.068;15.408;2022-11-12T01:56:53;37.05;;;33.65;;
1995;SDS011;38556;47.068;15.408;2022-11-12T01:59:24;34.03;;;30.83;;
1995;SDS011;38556;47.068;15.408;2022-11-12T02:01:55;35.55;;;32.30;;
1995;SDS011;38556;47.068;15.408;2022-11-12T02:04:23;32.83;;;30.42;;
1995;SDS011;38556;47.068;15.408;2022-11-12T02:06:51;33.15;;;30.65;;
1995;SDS011;38556;47.068;15.408;2022-11-12T02:09:21;32.67;;;29.85;;
1995;SDS011;38556;47.068;15.408;2022-11-12T02:11:48;32.90;;;29.95;;
1995;SDS011;38556;47.068;15.408;2022-11-12T02:14:17;41.88;;;33.92;;
1995;SDS011;38556;47.068;15.408;2022-11-12T02:16:44;34.13;;;31.00;;
1995;SDS011;38556;47.068;15.408;2022-11-12T02:19:13;29.95;;;27.88;;
1995;SDS011;38556;47.068;15.408;2022-11-12T02:21:43;30.73;;;28.38;;
1995;SDS011;38556;47.068;15.408;2022-11-12T02:26:58;33.45;;;30.92;;
1995;SDS011;38556;47.068;15.408;2022-11-12T02:29:25;33.80;;;31.20;;
1995;SDS011;38556;47.068;15.408;2022-11-12T02:31:53;32.88;;;30.27;;
1995;SDS011;38556;47.068;15.408;2022-11-12T02:34:20;32.22;;;29.83;;
1995;SDS011;38556;47.068;15.408;2022-11-12T02:36:49;31.10;;;29.00;;
1995;SDS011;38556;47.068;15.408;2022-11-12T02:39:16;28.35;;;26.52;;
1995;SDS011;38556;47.068;15.408;2022-11-12T02:41:44;30.08;;;27.90;;
1995;SDS011;38556;47.068;15.408;2022-11-12T02:44:11;29.17;;;27.27;;
1995;SDS011;38556;47.068;15.408;2022-11-12T02:46:39;29.40;;;27.40;;
1995;SDS011;38556;47.068;15.408;2022-11-12T02:49:06;29.40;;;27.33;;
1995;SDS011;38556;47.068;15.408;2022-11-12T02:51:33;30.02;;;28.02;;
1995;SDS011;38556;47.068;15.408;2022-11-12T02:54:02;31.20;;;28.92;;
1995;SDS011;38556;47.068;15.408;2022-11-12T02:56:30;33.08;;;30.45;;
1995;SDS011;38556;47.068;15.408;2022-11-12T02:58:57;33.53;;;31.17;;
1995;SDS011;38556;47.068;15.408;2022-11-12T03:01:25;31.05;;;28.75;;
1995;SDS011;38556;47.068;15.408;2022-11-12T03:03:52;32.47;;;30.08;;
1995;SDS011;38556;47.068;15.408;2022-11-12T03:06:19;33.20;;;30.45;;
1995;SDS011;38556;47.068;15.408;2022-11-12T03:08:47;32.33;;;30.02;;
1995;SDS011;38556;47.068;15.408;2022-11-12T03:11:16;34.05;;;31.40;;
1995;SDS011;38556;47.068;15.408;2022-11-12T03:13:43;32.85;;;30.48;;
1995;SDS011;38556;47.068;15.408;2022-11-12T03:16:11;34.75;;;32.13;;
1995;SDS011;38556;47.068;15.408;2022-11-12T03:18:38;36.10;;;33.10;;
1995;SDS011;38556;47.068;15.408;2022-11-12T03:21:05;36.63;;;33.63;;
1995;SDS011;38556;47.068;15.408;2022-11-12T03:23:33;32.92;;;30.17;;
1995;SDS011;38556;47.068;15.408;2022-11-12T03:26:01;33.47;;;30.77;;
1995;SDS011;38556;47.068;15.408;2022-11-12T03:28:30;32.30;;;29.90;;
1995;SDS011;38556;47.068;15.408;2022-11-12T03:30:58;32.03;;;29.35;;
1995;SDS011;38556;47.068;15.408;2022-11-12T03:33:26;30.63;;;28.30;;
1995;SDS011;38556;47.068;15.408;2022-11-12T03:35:54;29.85;;;27.80;;
1995;SDS011;38556;47.068;15.408;2022-11-12T03:38:23;31.42;;;29.02;;
1995;SDS011;38556;47.068;15.408;2022-11-12T03:40:51;29.45;;;27.48;;
1995;SDS011;38556;47.068;15.408;2022-11-12T03:43:18;29.50;;;27.27;;
1995;SDS011;38556;47.068;15.408;2022-11-12T03:45:48;30.67;;;28.45;;
1995;SDS011;38556;47.068;15.408;2022-11-12T03:48:20;31.00;;;28.70;;
1995;SDS011;38556;47.068;15.408;2022-11-12T03:50:48;31.58;;;29.13;;
1995;SDS011;38556;47.068;15.408;2022-11-12T03:53:15;29.55;;;27.55;;
1995;SDS011;38556;47.068;15.408;2022-11-12T03:55:42;31.67;;;29.42;;
1995;SDS011;38556;47.068;15.408;2022-11-12T03:58:10;33.65;;;30.80;;
1995;SDS011;38556;47.068;15.408;2022-11-12T04:00:37;31.52;;;29.02;;
1995;SDS011;38556;47.068;15.408;2022-11-12T04:03:06;32.20;;;29.90;;
1995;SDS011;38556;47.068;15.408;2022-11-12T04:05:34;29.70;;;27.63;;
1995;SDS011;38556;47.068;15.408;2022-11-12T04:08:19;29.83;;;27.83;;
1995;SDS011;38556;47.068;15.408;2022-11-12T04:11:04;29.48;;;27.40;;
1995;SDS011;38556;47.068;15.408;2022-11-12T04:13:33;30.83;;;28.70;;
1995;SDS011;38556;47.068;15.408;2022-11-12T04:16:03;30.40;;;27.85;;
1995;SDS011;38556;47.068;15.408;2022-11-12T04:18:51;28.63;;;26.52;;
1995;SDS011;38556;47.068;15.408;2022-11-12T04:21:51;31.27;;;28.75;;
1995;SDS011;38556;47.068;15.408;2022-11-12T04:24:22;30.88;;;28.60;;
1995;SDS011;38556;47.068;15.408;2022-11-12T04:27:09;29.95;;;27.73;;
1995;SDS011;38556;47.068;15.408;2022-11-12T04:29:39;29.88;;;27.77;;
1995;SDS011;38556;47.068;15.408;2022-11-12T04:32:24;29.77;;;27.65;;
1995;SDS011;38556;47.068;15.408;2022-11-12T04:34:53;29.75;;;27.63;;
1995;SDS011;38556;47.068;15.408;2022-11-12T04:37:20;29.77;;;27.35;;
1995;SDS011;38556;47.068;15.408;2022-11-12T04:39:49;30.13;;;27.88;;
1995;SDS011;38556;47.068;15.408;2022-11-12T04:42:16;29.25;;;27.15;;
1995;SDS011;38556;47.068;15.408;2022-11-12T04:45:01;29.80;;;27.48;;
1995;SDS011;38556;47.068;15.408;2022-11-12T04:47:30;28.98;;;26.20;;
1995;SDS011;38556;47.068;15.408;2022-11-12T04:50:01;29.60;;;27.10;;
1995;SDS011;38556;47.068;15.408;2022-11-12T04:52:29;27.58;;;25.77;;
1995;SDS011;38556;47.068;15.408;2022-11-12T04:54:57;29.65;;;27.42;;
1995;SDS011;38556;47.068;15.408;2022-11-12T04:57:24;28.10;;;26.10;;
1995;SDS011;38556;47.068;15.408;2022-11-12T04:59:51;28.38;;;26.30;;
1995;SDS011;38556;47.068;15.408;2022-11-12T05:02:19;30.92;;;28.67;;
1995;SDS011;38556;47.068;15.408;2022-11-12T05:04:46;29.27;;;27.17;;
1995;SDS011;38556;47.068;15.408;2022-11-12T05:07:16;30.65;;;28.50;;
1995;SDS011;38556;47.068;15.408;2022-11-12T05:09:43;29.60;;;27.55;;
1995;SDS011;38556;47.068;15.408;2022-11-12T05:12:11;30.27;;;28.13;;
1995;SDS011;38556;47.068;15.408;2022-11-12T05:14:38;30.27;;;27.88;;
1995;SDS011;38556;47.068;15.408;2022-11-12T05:17:06;30.73;;;28.45;;
1995;SDS011;38556;47.068;15.408;2022-11-12T05:19:33;31.23;;;28.90;;
1995;SDS011;38556;47.068;15.408;2022-11-12T05:22:01;28.52;;;26.20;;
1995;SDS011;38556;47.068;15.408;2022-11-12T05:24:31;29.20;;;27.25;;
1995;SDS011;38556;47.068;15.408;2022-11-12T05:27:03;28.42;;;26.60;;
1995;SDS011;38556;47.068;15.408;2022-11-12T05:29:31;30.58;;;28.48;;
1995;SDS011;38556;47.068;15.408;2022-11-12T05:31:59;30.10;;;28.10;;
1995;SDS011;38556;47.068;15.408;2022-11-12T05:34:27;30.58;;;28.38;;
1995;SDS011;38556;47.068;15.408;2022-11-12T05:36:54;31.40;;;29.10;;
1995;SDS011;38556;47.068;15.408;2022-11-12T05:39:22;31.85;;;29.55;;
1995;SDS011;38556;47.068;15.408;2022-11-12T05:41:50;31.38;;;29.27;;
1995;SDS011;38556;47.068;15.408;2022-11-12T05:44:17;29.58;;;27.38;;
1995;SDS011;38556;47.068;15.408;2022-11-12T05:46:45;30.02;;;27.83;;
1995;SDS011;38556;47.068;15.408;2022-11-12T05:49:13;28.38;;;26.55;;
1995;SDS011;38556;47.068;15.408;2022-11-12T05:51:40;30.50;;;28.10;;
1995;SDS011;38556;47.068;15.408;2022-11-12T05:54:07;27.98;;;25.85;;
1995;SDS011;38556;47.068;15.408;2022-11-12T05:56:35;25.85;;;24.13;;
1995;SDS011;38556;47.068;15.408;2022-11-12T05:59:05;28.60;;;26.65;;
1995;SDS011;38556;47.068;15.408;2022-11-12T06:01:36;30.15;;;27.95;;
1995;SDS011;38556;47.068;15.408;2022-11-12T06:04:08;30.33;;;28.02;;
1995;SDS011;38556;47.068;15.408;2022-11-12T06:06:37;29.40;;;27.17;;
1995;SDS011;38556;47.068;15.408;2022-11-12T06:09:04;29.60;;;27.42;;
1995;SDS011;38556;47.068;15.408;2022-11-12T06:11:33;28.40;;;26.40;;
1995;SDS011;38556;47.068;15.408;2022-11-12T06:14:00;29.77;;;27.60;;
1995;SDS011;38556;47.068;15.408;2022-11-12T06:16:30;30.63;;;28.25;;
1995;SDS011;38556;47.068;15.408;2022-11-12T06:18:57;29.00;;;26.90;;
1995;SDS011;38556;47.068;15.408;2022-11-12T06:21:25;29.15;;;26.90;;
1995;SDS011;38556;47.068;15.408;2022-11-12T06:23:53;31.95;;;29.52;;
1995;SDS011;38556;47.068;15.408;2022-11-12T06:26:22;29.27;;;27.02;;
1995;SDS011;38556;47.068;15.408;2022-11-12T06:28:50;29.75;;;27.65;;
1995;SDS011;38556;47.068;15.408;2022-11-12T06:31:18;30.27;;;28.08;;
1995;SDS011;38556;47.068;15.408;2022-11-12T06:33:48;30.13;;;27.92;;
1995;SDS011;38556;47.068;15.408;2022-11-12T06:36:16;32.80;;;30.25;;
1995;SDS011;38556;47.068;15.408;2022-11-12T06:38:45;30.52;;;28.40;;
1995;SDS011;38556;47.068;15.408;2022-11-12T06:41:12;30.40;;;28.10;;
1995;SDS011;38556;47.068;15.408;2022-11-12T06:43:40;30.25;;;27.95;;
1995;SDS011;38556;47.068;15.408;2022-11-12T06:46:09;34.50;;;32.00;;
1995;SDS011;38556;47.068;15.408;2022-11-12T06:48:39;39.60;;;36.30;;
1995;SDS011;38556;47.068;15.408;2022-11-12T06:51:08;41.10;;;38.08;;
1995;SDS011;38556;47.068;15.408;2022-11-12T06:53:38;37.47;;;34.72;;
1995;SDS011;38556;47.068;15.408;2022-11-12T06:56:05;40.28;;;37.08;;
1995;SDS011;38556;47.068;15.408;2022-11-12T06:58:33;37.97;;;34.83;;
1995;SDS011;38556;47.068;15.408;2022-11-12T07:01:05;36.28;;;33.63;;
1995;SDS011;38556;47.068;15.408;2022-11-12T07:03:34;34.03;;;31.40;;
1995;SDS011;38556;47.068;15.408;2022-11-12T07:06:05;32.63;;;30.33;;
1995;SDS011;38556;47.068;15.408;2022-11-12T07:08:36;35.80;;;33.20;;
1995;SDS011;38556;47.068;15.408;2022-11-12T07:11:04;38.55;;;35.53;;
1995;SDS011;38556;47.068;15.408;2022-11-12T07:13:32;37.75;;;34.17;;
1995;SDS011;38556;47.068;15.408;2022-11-12T07:16:01;35.05;;;32.25;;
1995;SDS011;38556;47.068;15.408;2022-11-12T07:18:29;44.63;;;40.63;;
1995;SDS011;38556;47.068;15.408;2022-11-12T07:20:57;46.90;;;43.00;;
1995;SDS011;38556;47.068;15.408;2022-11-12T07:23:27;42.03;;;38.67;;
1995;SDS011;38556;47.068;15.408;2022-11-12T07:25:55;39.08;;;36.17;;
1995;SDS011;38556;47.068;15.408;2022-11-12T07:28:24;37.15;;;34.30;;
1995;SDS011;38556;47.068;15.408;2022-11-12T07:30:55;38.50;;;35.42;;
1995;SDS011;38556;47.068;15.408;2022-11-12T07:33:24;37.53;;;34.60;;
1995;SDS011;38556;47.068;15.408;2022-11-12T07:35:55;35.05;;;32.15;;
1995;SDS011;38556;47.068;15.408;2022-11-12T07:38:24;33.75;;;31.15;;
1995;SDS011;38556;47.068;15.408;2022-11-12T07:40:59;38.10;;;35.25;;
1995;SDS011;38556;47.068;15.408;2022-11-12T07:43:28;38.53;;;35.50;;
1995;SDS011;38556;47.068;15.408;2022-11-12T07:45:58;36.17;;;33.38;;
1995;SDS011;38556;47.068;15.408;2022-11-12T07:48:25;35.20;;;32.60;;
1995;SDS011;38556;47.068;15.408;2022-11-12T07:50:58;36.92;;;34.03;;
1995;SDS011;38556;47.068;15.408;2022-11-12T07:53:28;35.70;;;32.67;;
1995;SDS011;38556;47.068;15.408;2022-11-12T07:55:55;36.28;;;33.35;;
1995;SDS011;38556;47.068;15.408;2022-11-12T07:58:24;34.97;;;32.38;;
1995;SDS011;38556;47.068;15.408;2022-11-12T08:00:52;35.75;;;33.15;;
1995;SDS011;38556;47.068;15.408;2022-11-12T08:03:19;35.97;;;33.22;;
1995;SDS011;38556;47.068;15.408;2022-11-12T08:05:48;33.20;;;30.80;;
1995;SDS011;38556;47.068;15.408;2022-11-12T08:08:15;32.80;;;30.30;;
1995;SDS011;38556;47.068;15.408;2022-11-12T08:10:44;34.85;;;31.85;;
1995;SDS011;38556;47.068;15.408;2022-11-12T08:13:11;33.97;;;30.95;;
1995;SDS011;38556;47.068;15.408;2022-11-12T08:15:39;33.20;;;30.65;;
1995;SDS011;38556;47.068;15.408;2022-11-12T08:18:06;33.55;;;31.00;;
1995;SDS011;38556;47.068;15.408;2022-11-12T08:20:34;33.10;;;30.50;;
1995;SDS011;38556;47.068;15.408;2022-11-12T08:23:01;33.25;;;30.75;;
1995;SDS011;38556;47.068;15.408;2022-11-12T08:25:29;31.45;;;29.05;;
1995;SDS011;38556;47.068;15.408;2022-11-12T08:27:57;34.60;;;31.95;;
1995;SDS011;38556;47.068;15.408;2022-11-12T08:30:26;35.00;;;32.05;;
1995;SDS011;38556;47.068;15.408;2022-11-12T08:32:54;32.92;;;30.60;;
1995;SDS011;38556;47.068;15.408;2022-11-12T08:35:23;33.67;;;30.90;;
1995;SDS011;38556;47.068;15.408;2022-11-12T08:37:51;33.65;;;31.35;;
1995;SDS011;38556;47.068;15.408;2022-11-12T08:40:18;36.08;;;33.15;;
1995;SDS011;38556;47.068;15.408;2022-11-12T08:42:45;31.77;;;29.58;;
1995;SDS011;38556;47.068;15.408;2022-11-12T08:45:14;37.17;;;34.33;;
1995;SDS011;38556;47.068;15.408;2022-11-12T08:47:41;42.95;;;39.17;;
1995;SDS011;38556;47.068;15.408;2022-11-12T08:50:09;42.90;;;39.70;;
1995;SDS011;38556;47.068;15.408;2022-11-12T08:52:36;38.50;;;35.67;;
1995;SDS011;38556;47.068;15.408;2022-11-12T08:55:04;36.90;;;34.10;;
1995;SDS011;38556;47.068;15.408;2022-11-12T08:57:37;31.08;;;28.88;;
1995;SDS011;38556;47.068;15.408;2022-11-12T09:00:07;32.88;;;30.52;;
1995;SDS011;38556;47.068;15.408;2022-11-12T09:02:37;31.55;;;29.25;;
1995;SDS011;38556;47.068;15.408;2022-11-12T09:05:04;29.98;;;27.77;;
1995;SDS011;38556;47.068;15.408;2022-11-12T09:07:32;32.10;;;29.70;;
1995;SDS011;38556;47.068;15.408;2022-11-12T09:09:59;29.90;;;27.88;;
1995;SDS011;38556;47.068;15.408;2022-11-12T09:12:27;30.10;;;27.67;;
1995;SDS011;38556;47.068;15.408;2022-11-12T09:14:54;28.70;;;26.70;;
1995;SDS011;38556;47.068;15.408;2022-11-12T09:17:22;32.72;;;30.23;;
1995;SDS011;38556;47.068;15.408;2022-11-12T09:19:51;29.55;;;27.55;;
1995;SDS011;38556;47.068;15.408;2022-11-12T09:22:18;29.58;;;27.17;;
1995;SDS011;38556;47.068;15.408;2022-11-12T09:24:45;31.73;;;29.63;;
1995;SDS011;38556;47.068;15.408;2022-11-12T09:27:13;31.35;;;28.75;;
1995;SDS011;38556;47.068;15.408;2022-11-12T09:29:40;30.52;;;28.40;;
1995;SDS011;38556;47.068;15.408;2022-11-12T09:32:08;29.52;;;27.50;;
1995;SDS011;38556;47.068;15.408;2022-11-12T09:34:35;31.02;;;28.70;;
1995;SDS011;38556;47.068;15.408;2022-11-12T09:37:03;29.25;;;27.17;;
1995;SDS011;38556;47.068;15.408;2022-11-12T09:39:31;30.90;;;28.27;;
1995;SDS011;38556;47.068;15.408;2022-11-12T09:41:58;30.50;;;28.02;;
1995;SDS011;38556;47.068;15.408;2022-11-12T09:44:25;29.90;;;27.80;;
1995;SDS011;38556;47.068;15.408;2022-11-12T09:46:53;29.05;;;26.92;;
1995;SDS011;38556;47.068;15.408;2022-11-12T09:49:27;34.63;;;32.10;;
1995;SDS011;38556;47.068;15.408;2022-11-12T09:51:58;32.10;;;29.98;;
1995;SDS011;38556;47.068;15.408;2022-11-12T09:54:30;29.00;;;26.98;;
1995;SDS011;38556;47.068;15.408;2022-11-12T09:56:59;29.20;;;27.30;;
1995;SDS011;38556;47.068;15.408;2022-11-12T09:59:28;27.67;;;25.83;;
1995;SDS011;38556;47.068;15.408;2022-11-12T10:01:59;28.27;;;26.38;;
1995;SDS011;38556;47.068;15.408;2022-11-12T10:04:36;29.13;;;27.02;;
1995;SDS011;38556;47.068;15.408;2022-11-12T10:07:11;29.90;;;27.80;;
1995;SDS011;38556;47.068;15.408;2022-11-12T10:09:50;29.35;;;27.33;;
1995;SDS011;38556;47.068;15.408;2022-11-12T10:12:25;30.77;;;28.73;;
1995;SDS011;38556;47.068;15.408;2022-11-12T10:15:17;28.20;;;26.50;;
1995;SDS011;38556;47.068;15.408;2022-11-12T10:18:14;28.55;;;26.65;;
1995;SDS011;38556;47.068;15.408;2022-11-12T10:20:49;27.42;;;25.63;;
1995;SDS011;38556;47.068;15.408;2022-11-12T10:23:21;25.77;;;23.88;;
1995;SDS011;38556;47.068;15.408;2022-11-12T10:25:55;27.27;;;25.50;;
1995;SDS011;38556;47.068;15.408;2022-11-12T10:28:26;28.98;;;26.98;;
1995;SDS011;38556;47.068;15.408;2022-11-12T10:30:55;29.83;;;27.65;;
1995;SDS011;38556;47.068;15.408;2022-11-12T10:33:28;29.13;;;27.15;;
1995;SDS011;38556;47.068;15.408;2022-11-12T10:35:57;29.88;;;27.73;;
1995;SDS011;38556;47.068;15.408;2022-11-12T10:38:39;29.20;;;27.17;;
1995;SDS011;38556;47.068;15.408;2022-11-12T10:41:18;30.05;;;28.05;;
1995;SDS011;38556;47.068;15.408;2022-11-12T10:43:52;31.35;;;29.10;;
1995;SDS011;38556;47.068;15.408;2022-11-12T10:46:22;34.80;;;32.20;;
1995;SDS011;38556;47.068;15.408;2022-11-12T10:48:52;32.67;;;30.17;;
1995;SDS011;38556;47.068;15.408;2022-11-12T10:51:26;30.23;;;28.13;;
1995;SDS011;38556;47.068;15.408;2022-11-12T10:53:55;29.73;;;27.35;;
1995;SDS011;38556;47.068;15.408;2022-11-12T10:56:25;28.33;;;26.38;;
1995;SDS011;38556;47.068;15.408;2022-11-12T10:59:13;27.67;;;25.77;;
1995;SDS011;38556;47.068;15.408;2022-11-12T11:01:42;28.02;;;26.02;;
1995;SDS011;38556;47.068;15.408;2022-11-12T11:04:14;27.05;;;25.13;;
1995;SDS011;38556;47.068;15.408;2022-11-12T11:06:56;26.23;;;24.45;;
1995;SDS011;38556;47.068;15.408;2022-11-12T11:09:24;27.85;;;25.95;;
1995;SDS011;38556;47.068;15.408;2022-11-12T11:11:54;26.52;;;24.73;;
1995;SDS011;38556;47.068;15.408;2022-11-12T11:14:26;27.73;;;25.80;;
1995;SDS011;38556;47.068;15.408;2022-11-12T11:16:59;27.73;;;25.63;;
1995;SDS011;38556;47.068;15.408;2022-11-12T11:19:33;26.60;;;24.83;;
1995;SDS011;38556;47.068;15.408;2022-11-12T11:24:55;27.02;;;24.92;;
1995;SDS011;38556;47.068;15.408;2022-11-12T11:27:40;26.00;;;24.17;;
1995;SDS011;38556;47.068;15.408;2022-11-12T11:30:13;25.95;;;24.25;;
1995;SDS011;38556;47.068;15.408;2022-11-12T11:32:53;26.92;;;25.02;;
1995;SDS011;38556;47.068;15.408;2022-11-12T11:35:51;25.88;;;24.02;;
1995;SDS011;38556;47.068;15.408;2022-11-12T11:38:30;24.85;;;23.10;;
1995;SDS011;38556;47.068;15.408;2022-11-12T11:41:08;25.67;;;23.90;;
1995;SDS011;38556;47.068;15.408;2022-11-12T11:43:54;25.63;;;23.67;;
1995;SDS011;38556;47.068;15.408;2022-11-12T11:46:33;25.02;;;23.42;;
1995;SDS011;38556;47.068;15.408;2022-11-12T11:52:20;25.40;;;23.63;;
1995;SDS011;38556;47.068;15.408;2022-11-12T11:55:08;26.10;;;24.20;;
1995;SDS011;38556;47.068;15.408;2022-11-12T11:57:59;26.50;;;24.70;;
1995;SDS011;38556;47.068;15.408;2022-11-12T12:00:49;27.30;;;25.05;;
1995;SDS011;38556;47.068;15.408;2022-11-12T12:03:25;27.73;;;25.73;;
1995;SDS011;38556;47.068;15.408;2022-11-12T12:06:13;27.10;;;25.27;;
1995;SDS011;38556;47.068;15.408;2022-11-12T12:08:51;27.55;;;25.52;;
1995;SDS011;38556;47.068;15.408;2022-11-12T12:11:29;28.17;;;25.88;;
1995;SDS011;38556;47.068;15.408;2022-11-12T12:14:05;26.67;;;24.77;;
1995;SDS011;38556;47.068;15.408;2022-11-12T12:16:45;25.73;;;24.05;;
1995;SDS011;38556;47.068;15.408;2022-11-12T12:19:26;26.95;;;24.88;;
1995;SDS011;38556;47.068;15.408;2022-11-12T12:22:08;25.42;;;23.60;;
1995;SDS011;38556;47.068;15.408;2022-11-12T12:24:41;26.38;;;24.60;;
1995;SDS011;38556;47.068;15.408;2022-11-12T12:27:16;25.75;;;23.60;;
1995;SDS011;38556;47.068;15.408;2022-11-12T12:29:48;24.63;;;23.13;;
1995;SDS011;38556;47.068;15.408;2022-11-12T12:32:22;25.65;;;23.98;;
1995;SDS011;38556;47.068;15.408;2022-11-12T12:34:55;25.38;;;23.67;;
1995;SDS011;38556;47.068;15.408;2022-11-12T12:37:31;26.77;;;24.95;;
1995;SDS011;38556;47.068;15.408;2022-11-12T12:40:07;27.10;;;25.25;;
1995;SDS011;38556;47.068;15.408;2022-11-12T12:42:44;26.15;;;24.45;;
1995;SDS011;38556;47.068;15.408;2022-11-12T12:45:29;26.67;;;24.88;;
1995;SDS011;38556;47.068;15.408;2022-11-12T12:48:08;26.42;;;24.52;;
1995;SDS011;38556;47.068;15.408;2022-11-12T12:50:40;25.95;;;24.25;;
1995;SDS011;38556;47.068;15.408;2022-11-12T12:53:16;26.27;;;24.30;;
1995;SDS011;38556;47.068;15.408;2022-11-12T12:55:57;26.02;;;24.33;;
1995;SDS011;38556;47.068;15.408;2022-11-12T12:58:27;27.55;;;25.65;;
1995;SDS011;38556;47.068;15.408;2022-11-12T13:00:57;26.23;;;24.35;;
1995;SDS011;38556;47.068;15.408;2022-11-12T13:03:49;24.80;;;23.20;;
1995;SDS011;38556;47.068;15.408;2022-11-12T13:06:22;25.50;;;23.75;;
1995;SDS011;38556;47.068;15.408;2022-11-12T13:08:55;25.50;;;23.70;;
1995;SDS011;38556;47.068;15.408;2022-11-12T13:17:48;23.40;;;21.90;;
1995;SDS011;38556;47.068;15.408;2022-11-12T13:23:41;22.67;;;21.23;;
1995;SDS011;38556;47.068;15.408;2022-11-12T13:29:22;23.47;;;21.77;;
1995;SDS011;38556;47.068;15.408;2022-11-12T13:32:30;25.37;;;23.70;;
1995;SDS011;38556;47.068;15.408;2022-11-12T13:37:57;24.42;;;22.95;;
1995;SDS011;38556;47.068;15.408;2022-11-12T13:40:36;24.60;;;22.77;;
1995;SDS011;38556;47.068;15.408;2022-11-12T13:43:09;24.05;;;22.65;;
1995;SDS011;38556;47.068;15.408;2022-11-12T13:45:52;24.92;;;23.30;;
1995;SDS011;38556;47.068;15.408;2022-11-12T13:48:25;26.25;;;24.25;;
1995;SDS011;38556;47.068;15.408;2022-11-12T13:50:56;27.10;;;25.25;;
1995;SDS011;38556;47.068;15.408;2022-11-12T13:53:28;27.95;;;25.35;;
1995;SDS011;38556;47.068;15.408;2022-11-12T13:55:58;26.33;;;24.53;;
1995;SDS011;38556;47.068;15.408;2022-11-12T13:58:26;25.33;;;23.50;;
1995;SDS011;38556;47.068;15.408;2022-11-12T14:00:54;25.63;;;23.77;;
1995;SDS011;38556;47.068;15.408;2022-11-12T14:03:24;23.70;;;22.20;;
1995;SDS011;38556;47.068;15.408;2022-11-12T14:05:54;23.83;;;22.33;;
1995;SDS011;38556;47.068;15.408;2022-11-12T14:08:35;25.67;;;23.77;;
1995;SDS011;38556;47.068;15.408;2022-11-12T14:14:12;22.97;;;21.60;;
1995;SDS011;38556;47.068;15.408;2022-11-12T14:16:51;22.77;;;21.37;;
1995;SDS011;38556;47.068;15.408;2022-11-12T14:19:43;21.50;;;20.30;;
1995;SDS011;38556;47.068;15.408;2022-11-12T14:22:24;21.57;;;20.37;;
1995;SDS011;38556;47.068;15.408;2022-11-12T14:24:58;23.03;;;21.53;;
1995;SDS011;38556;47.068;15.408;2022-11-12T14:27:34;23.00;;;21.63;;
1995;SDS011;38556;47.068;15.408;2022-11-12T14:30:09;20.60;;;19.40;;
1995;SDS011;38556;47.068;15.408;2022-11-12T14:32:39;21.20;;;20.00;;
1995;SDS011;38556;47.068;15.408;2022-11-12T14:38:02;23.53;;;22.07;;
1995;SDS011;38556;47.068;15.408;2022-11-12T14:40:34;22.40;;;21.13;;
1995;SDS011;38556;47.068;15.408;2022-11-12T14:43:04;22.20;;;21.00;;
1995;SDS011;38556;47.068;15.408;2022-11-12T14:45:31;23.93;;;22.53;;
1995;SDS011;38556;47.068;15.408;2022-11-12T14:47:59;23.63;;;22.30;;
1995;SDS011;38556;47.068;15.408;2022-11-12T14:50:28;22.10;;;20.90;;
1995;SDS011;38556;47.068;15.408;2022-11-12T14:52:58;22.50;;;21.03;;
1995;SDS011;38556;47.068;15.408;2022-11-12T14:55:32;23.27;;;21.97;;
1995;SDS011;38556;47.068;15.408;2022-11-12T14:58:02;24.73;;;23.13;;
1995;SDS011;38556;47.068;15.408;2022-11-12T15:00:37;22.63;;;21.33;;
1995;SDS011;38556;47.068;15.408;2022-11-12T15:03:10;22.13;;;20.63;;
1995;SDS011;38556;47.068;15.408;2022-11-12T15:05:54;22.97;;;21.37;;
1995;SDS011;38556;47.068;15.408;2022-11-12T15:08:27;23.00;;;21.70;;
1995;SDS011;38556;47.068;15.408;2022-11-12T15:10:57;23.70;;;21.87;;
1995;SDS011;38556;47.068;15.408;2022-11-12T15:13:46;23.60;;;21.90;;